Silver Star Mountain, Canada
Current Conditions -  °F | °C
As of 4:00 AM on Thursday 29 Jan 2015 (Local Time) from CYLW Reporting Station
Overcast Overcast  
Wind Chill: 28°   Ceiling: 1400
Heat Index: 34°   Visibility: 9mi
Dew Point: 32°   Wind: 7mph
Humidity: 93%   Direction: 170°S
Pressure: 30.48"   Gusts: NA
Location:  50.36°N, 119.07°W
Report Text: CYLW 291200Z AUTO 17006KT 9SM OVC014 01/M00 A3048 RMK SLP339
Loading
Personal Weather Stations






























Interactive Weather Map New forecast layout! Learn more

10-Day Weather Forecast

Advertisements
Track Severe Weather on mobile